sensor_id;sensor_type;location;lat;lon;timestamp;temperature;humidity
7196;DHT22;3639;51.308;5.624;2023-02-19T00:02:22;10.60;99.90
7196;DHT22;3639;51.308;5.624;2023-02-19T00:04:47;10.60;99.90
7196;DHT22;3639;51.308;5.624;2023-02-19T00:07:13;10.50;99.90
7196;DHT22;3639;51.308;5.624;2023-02-19T00:09:39;10.60;99.90
7196;DHT22;3639;51.308;5.624;2023-02-19T00:12:05;10.60;99.90
7196;DHT22;3639;51.308;5.624;2023-02-19T00:14:30;10.60;99.90
7196;DHT22;3639;51.308;5.624;2023-02-19T00:16:56;10.60;99.90
7196;DHT22;3639;51.308;5.624;2023-02-19T00:19:21;10.60;99.90
7196;DHT22;3639;51.308;5.624;2023-02-19T00:21:50;10.60;99.90
7196;DHT22;3639;51.308;5.624;2023-02-19T00:24:16;10.60;99.90
7196;DHT22;3639;51.308;5.624;2023-02-19T00:26:43;10.60;99.90
7196;DHT22;3639;51.308;5.624;2023-02-19T00:29:18;10.60;99.90
7196;DHT22;3639;51.308;5.624;2023-02-19T00:31:44;10.60;99.90
7196;DHT22;3639;51.308;5.624;2023-02-19T00:34:11;10.60;99.90
7196;DHT22;3639;51.308;5.624;2023-02-19T00:36:38;10.60;99.90
7196;DHT22;3639;51.308;5.624;2023-02-19T00:39:05;10.60;99.90
7196;DHT22;3639;51.308;5.624;2023-02-19T00:41:31;10.60;99.90
7196;DHT22;3639;51.308;5.624;2023-02-19T00:43:59;10.60;99.90
7196;DHT22;3639;51.308;5.624;2023-02-19T00:46:31;10.60;99.90
7196;DHT22;3639;51.308;5.624;2023-02-19T00:48:58;10.60;99.90
7196;DHT22;3639;51.308;5.624;2023-02-19T00:51:35;10.70;99.90
7196;DHT22;3639;51.308;5.624;2023-02-19T00:54:02;10.70;99.90
7196;DHT22;3639;51.308;5.624;2023-02-19T00:56:27;10.70;99.90
7196;DHT22;3639;51.308;5.624;2023-02-19T00:58:53;10.70;99.90
7196;DHT22;3639;51.308;5.624;2023-02-19T01:01:19;10.70;99.90
7196;DHT22;3639;51.308;5.624;2023-02-19T01:03:46;10.70;99.90
7196;DHT22;3639;51.308;5.624;2023-02-19T01:06:13;10.70;99.90
7196;DHT22;3639;51.308;5.624;2023-02-19T01:08:39;10.70;99.90
7196;DHT22;3639;51.308;5.624;2023-02-19T01:11:06;10.70;99.90
7196;DHT22;3639;51.308;5.624;2023-02-19T01:13:33;10.70;99.90
7196;DHT22;3639;51.308;5.624;2023-02-19T01:18:28;10.70;99.90
7196;DHT22;3639;51.308;5.624;2023-02-19T01:20:53;10.70;99.90
7196;DHT22;3639;51.308;5.624;2023-02-19T01:23:19;10.70;99.90
7196;DHT22;3639;51.308;5.624;2023-02-19T01:25:44;10.70;99.90
7196;DHT22;3639;51.308;5.624;2023-02-19T01:28:10;10.70;99.90
7196;DHT22;3639;51.308;5.624;2023-02-19T01:30:37;10.70;99.90
7196;DHT22;3639;51.308;5.624;2023-02-19T01:33:04;10.80;99.90
7196;DHT22;3639;51.308;5.624;2023-02-19T01:35:29;10.70;99.90
7196;DHT22;3639;51.308;5.624;2023-02-19T01:37:55;10.70;99.90
7196;DHT22;3639;51.308;5.624;2023-02-19T01:40:21;10.70;99.90
7196;DHT22;3639;51.308;5.624;2023-02-19T01:42:47;10.70;99.90
7196;DHT22;3639;51.308;5.624;2023-02-19T01:45:27;10.70;99.90
7196;DHT22;3639;51.308;5.624;2023-02-19T01:48:05;10.70;99.90
7196;DHT22;3639;51.308;5.624;2023-02-19T01:50:36;10.70;99.90
7196;DHT22;3639;51.308;5.624;2023-02-19T01:53:05;10.70;99.90
7196;DHT22;3639;51.308;5.624;2023-02-19T01:55:33;10.70;99.90
7196;DHT22;3639;51.308;5.624;2023-02-19T01:58:01;10.70;99.90
7196;DHT22;3639;51.308;5.624;2023-02-19T02:00:27;10.70;99.90
7196;DHT22;3639;51.308;5.624;2023-02-19T02:02:55;10.70;99.90
7196;DHT22;3639;51.308;5.624;2023-02-19T02:08:13;10.70;99.90
7196;DHT22;3639;51.308;5.624;2023-02-19T02:10:58;10.70;99.90
7196;DHT22;3639;51.308;5.624;2023-02-19T02:13:24;10.70;99.90
7196;DHT22;3639;51.308;5.624;2023-02-19T02:18:54;10.70;99.90
7196;DHT22;3639;51.308;5.624;2023-02-19T02:21:28;10.70;99.90
7196;DHT22;3639;51.308;5.624;2023-02-19T02:32:16;10.70;99.90
7196;DHT22;3639;51.308;5.624;2023-02-19T02:34:53;10.60;99.90
7196;DHT22;3639;51.308;5.624;2023-02-19T02:37:20;10.60;99.90
7196;DHT22;3639;51.308;5.624;2023-02-19T02:39:48;10.70;99.90
7196;DHT22;3639;51.308;5.624;2023-02-19T02:42:15;10.70;99.90
7196;DHT22;3639;51.308;5.624;2023-02-19T02:44:54;10.70;99.90
7196;DHT22;3639;51.308;5.624;2023-02-19T02:47:52;10.70;99.90
7196;DHT22;3639;51.308;5.624;2023-02-19T02:50:25;10.70;99.90
7196;DHT22;3639;51.308;5.624;2023-02-19T02:52:58;10.70;99.90
7196;DHT22;3639;51.308;5.624;2023-02-19T02:55:47;10.70;99.90
7196;DHT22;3639;51.308;5.624;2023-02-19T02:58:15;10.70;99.90
7196;DHT22;3639;51.308;5.624;2023-02-19T03:00:43;10.70;99.90
7196;DHT22;3639;51.308;5.624;2023-02-19T03:03:30;10.70;99.90
7196;DHT22;3639;51.308;5.624;2023-02-19T03:06:02;10.60;99.90
7196;DHT22;3639;51.308;5.624;2023-02-19T03:11:10;10.60;99.90
7196;DHT22;3639;51.308;5.624;2023-02-19T03:16:47;10.50;99.90
7196;DHT22;3639;51.308;5.624;2023-02-19T03:19:41;10.40;99.90
7196;DHT22;3639;51.308;5.624;2023-02-19T03:22:13;10.40;99.90
7196;DHT22;3639;51.308;5.624;2023-02-19T03:24:48;10.40;99.90
7196;DHT22;3639;51.308;5.624;2023-02-19T03:27:34;10.30;99.90
7196;DHT22;3639;51.308;5.624;2023-02-19T03:30:04;10.30;99.90
7196;DHT22;3639;51.308;5.624;2023-02-19T03:32:43;10.30;99.90
7196;DHT22;3639;51.308;5.624;2023-02-19T03:35:16;10.20;99.90
7196;DHT22;3639;51.308;5.624;2023-02-19T03:37:44;10.20;99.90
7196;DHT22;3639;51.308;5.624;2023-02-19T03:40:11;10.20;99.90
7196;DHT22;3639;51.308;5.624;2023-02-19T03:43:17;10.20;99.90
7196;DHT22;3639;51.308;5.624;2023-02-19T03:48:40;10.20;99.90
7196;DHT22;3639;51.308;5.624;2023-02-19T03:51:30;10.20;99.90
7196;DHT22;3639;51.308;5.624;2023-02-19T03:54:14;10.20;99.90
7196;DHT22;3639;51.308;5.624;2023-02-19T03:56:59;10.20;99.90
7196;DHT22;3639;51.308;5.624;2023-02-19T03:59:33;10.20;99.90
7196;DHT22;3639;51.308;5.624;2023-02-19T04:02:10;10.20;99.90
7196;DHT22;3639;51.308;5.624;2023-02-19T04:05:09;10.10;99.90
7196;DHT22;3639;51.308;5.624;2023-02-19T04:07:38;10.10;99.90
7196;DHT22;3639;51.308;5.624;2023-02-19T04:10:06;10.10;99.90
7196;DHT22;3639;51.308;5.624;2023-02-19T04:12:36;10.20;99.90
7196;DHT22;3639;51.308;5.624;2023-02-19T04:15:08;10.10;99.90
7196;DHT22;3639;51.308;5.624;2023-02-19T04:17:37;10.20;99.90
7196;DHT22;3639;51.308;5.624;2023-02-19T04:20:07;10.20;99.90
7196;DHT22;3639;51.308;5.624;2023-02-19T04:22:34;10.20;99.90
7196;DHT22;3639;51.308;5.624;2023-02-19T04:25:01;10.20;99.90
7196;DHT22;3639;51.308;5.624;2023-02-19T04:27:26;10.20;99.90
7196;DHT22;3639;51.308;5.624;2023-02-19T04:29:52;10.20;99.90
7196;DHT22;3639;51.308;5.624;2023-02-19T04:32:17;10.20;99.90
7196;DHT22;3639;51.308;5.624;2023-02-19T04:34:44;10.20;99.90
7196;DHT22;3639;51.308;5.624;2023-02-19T04:37:09;10.10;99.90
7196;DHT22;3639;51.308;5.624;2023-02-19T04:39:35;10.10;99.90
7196;DHT22;3639;51.308;5.624;2023-02-19T04:42:01;10.10;99.90
7196;DHT22;3639;51.308;5.624;2023-02-19T04:44:26;10.20;99.90
7196;DHT22;3639;51.308;5.624;2023-02-19T04:46:52;10.20;99.90
7196;DHT22;3639;51.308;5.624;2023-02-19T04:49:18;10.10;99.90
7196;DHT22;3639;51.308;5.624;2023-02-19T04:51:43;10.20;99.90
7196;DHT22;3639;51.308;5.624;2023-02-19T04:54:09;10.20;99.90
7196;DHT22;3639;51.308;5.624;2023-02-19T04:56:34;10.20;99.90
7196;DHT22;3639;51.308;5.624;2023-02-19T04:59:00;10.20;99.90
7196;DHT22;3639;51.308;5.624;2023-02-19T05:01:26;10.20;99.90
7196;DHT22;3639;51.308;5.624;2023-02-19T05:03:51;10.10;99.90
7196;DHT22;3639;51.308;5.624;2023-02-19T05:06:17;10.10;99.90
7196;DHT22;3639;51.308;5.624;2023-02-19T05:08:43;10.10;99.90
7196;DHT22;3639;51.308;5.624;2023-02-19T05:11:10;10.10;99.90
7196;DHT22;3639;51.308;5.624;2023-02-19T05:13:36;10.10;99.90
7196;DHT22;3639;51.308;5.624;2023-02-19T05:16:08;10.10;99.90
7196;DHT22;3639;51.308;5.624;2023-02-19T05:18:34;10.10;99.90
7196;DHT22;3639;51.308;5.624;2023-02-19T05:21:00;10.10;99.90
7196;DHT22;3639;51.308;5.624;2023-02-19T05:23:27;10.10;99.90
7196;DHT22;3639;51.308;5.624;2023-02-19T05:25:53;10.10;99.90
7196;DHT22;3639;51.308;5.624;2023-02-19T05:28:19;10.10;99.90
7196;DHT22;3639;51.308;5.624;2023-02-19T05:30:47;10.00;99.90
7196;DHT22;3639;51.308;5.624;2023-02-19T05:33:16;10.00;99.90
7196;DHT22;3639;51.308;5.624;2023-02-19T05:35:43;10.00;99.90
7196;DHT22;3639;51.308;5.624;2023-02-19T05:38:11;9.90;99.90
7196;DHT22;3639;51.308;5.624;2023-02-19T05:40:37;9.80;99.90
7196;DHT22;3639;51.308;5.624;2023-02-19T05:43:03;9.80;99.90
7196;DHT22;3639;51.308;5.624;2023-02-19T05:45:29;9.70;99.90
7196;DHT22;3639;51.308;5.624;2023-02-19T05:47:54;9.70;99.90
7196;DHT22;3639;51.308;5.624;2023-02-19T05:50:20;9.70;99.90
7196;DHT22;3639;51.308;5.624;2023-02-19T05:52:46;9.60;99.90
7196;DHT22;3639;51.308;5.624;2023-02-19T05:55:12;9.60;99.90
7196;DHT22;3639;51.308;5.624;2023-02-19T05:57:46;9.50;99.90
7196;DHT22;3639;51.308;5.624;2023-02-19T06:00:16;9.50;99.90
7196;DHT22;3639;51.308;5.624;2023-02-19T06:02:43;9.50;99.90
7196;DHT22;3639;51.308;5.624;2023-02-19T06:05:08;9.40;99.90
7196;DHT22;3639;51.308;5.624;2023-02-19T06:07:34;9.40;99.90
7196;DHT22;3639;51.308;5.624;2023-02-19T06:10:01;9.30;99.90
7196;DHT22;3639;51.308;5.624;2023-02-19T06:12:26;9.30;99.90
7196;DHT22;3639;51.308;5.624;2023-02-19T06:14:52;9.30;99.90
7196;DHT22;3639;51.308;5.624;2023-02-19T06:17:18;9.20;99.90
7196;DHT22;3639;51.308;5.624;2023-02-19T06:19:43;9.20;99.90
7196;DHT22;3639;51.308;5.624;2023-02-19T06:22:09;9.30;99.90
7196;DHT22;3639;51.308;5.624;2023-02-19T06:24:35;9.20;99.90
7196;DHT22;3639;51.308;5.624;2023-02-19T06:27:05;9.20;99.90
7196;DHT22;3639;51.308;5.624;2023-02-19T06:29:31;9.10;99.90
7196;DHT22;3639;51.308;5.624;2023-02-19T06:31:57;9.10;99.90
7196;DHT22;3639;51.308;5.624;2023-02-19T06:34:24;9.10;99.90
7196;DHT22;3639;51.308;5.624;2023-02-19T06:36:49;9.20;99.90
7196;DHT22;3639;51.308;5.624;2023-02-19T06:39:15;9.20;99.90
7196;DHT22;3639;51.308;5.624;2023-02-19T06:41:41;9.30;99.90
7196;DHT22;3639;51.308;5.624;2023-02-19T06:44:07;9.30;99.90
7196;DHT22;3639;51.308;5.624;2023-02-19T06:46:33;9.30;99.90
7196;DHT22;3639;51.308;5.624;2023-02-19T06:48:59;9.30;99.90
7196;DHT22;3639;51.308;5.624;2023-02-19T06:51:25;9.30;99.90
7196;DHT22;3639;51.308;5.624;2023-02-19T06:53:53;9.30;99.90
7196;DHT22;3639;51.308;5.624;2023-02-19T06:58:57;9.40;99.90
7196;DHT22;3639;51.308;5.624;2023-02-19T07:01:24;9.40;99.90
7196;DHT22;3639;51.308;5.624;2023-02-19T07:03:51;9.40;99.90
7196;DHT22;3639;51.308;5.624;2023-02-19T07:06:17;9.40;99.90
7196;DHT22;3639;51.308;5.624;2023-02-19T07:08:43;9.40;99.90
7196;DHT22;3639;51.308;5.624;2023-02-19T07:11:09;9.40;99.90
7196;DHT22;3639;51.308;5.624;2023-02-19T07:13:34;9.50;99.90
7196;DHT22;3639;51.308;5.624;2023-02-19T07:16:03;9.50;99.90
7196;DHT22;3639;51.308;5.624;2023-02-19T07:18:29;9.50;99.90
7196;DHT22;3639;51.308;5.624;2023-02-19T07:21:01;9.50;99.90
7196;DHT22;3639;51.308;5.624;2023-02-19T07:23:27;9.50;99.90
7196;DHT22;3639;51.308;5.624;2023-02-19T07:25:53;9.50;99.90
7196;DHT22;3639;51.308;5.624;2023-02-19T07:28:18;9.60;99.90
7196;DHT22;3639;51.308;5.624;2023-02-19T07:30:44;9.60;99.90
7196;DHT22;3639;51.308;5.624;2023-02-19T07:33:10;9.60;99.90
7196;DHT22;3639;51.308;5.624;2023-02-19T07:35:35;9.60;99.90
7196;DHT22;3639;51.308;5.624;2023-02-19T07:38:01;9.70;99.90
7196;DHT22;3639;51.308;5.624;2023-02-19T07:40:27;9.70;99.90
7196;DHT22;3639;51.308;5.624;2023-02-19T07:42:52;9.70;99.90
7196;DHT22;3639;51.308;5.624;2023-02-19T07:45:18;9.70;99.90
7196;DHT22;3639;51.308;5.624;2023-02-19T07:47:44;9.70;99.90
7196;DHT22;3639;51.308;5.624;2023-02-19T07:50:09;9.70;99.90
7196;DHT22;3639;51.308;5.624;2023-02-19T07:52:35;9.70;99.90
7196;DHT22;3639;51.308;5.624;2023-02-19T07:55:00;9.70;99.90
7196;DHT22;3639;51.308;5.624;2023-02-19T07:57:29;9.70;99.90
7196;DHT22;3639;51.308;5.624;2023-02-19T07:59:55;9.60;99.90
7196;DHT22;3639;51.308;5.624;2023-02-19T08:02:21;9.60;99.90
7196;DHT22;3639;51.308;5.624;2023-02-19T08:05:05;9.60;99.90
7196;DHT22;3639;51.308;5.624;2023-02-19T08:07:35;9.60;99.90
7196;DHT22;3639;51.308;5.624;2023-02-19T08:10:02;9.50;99.90
7196;DHT22;3639;51.308;5.624;2023-02-19T08:12:54;9.50;99.90
7196;DHT22;3639;51.308;5.624;2023-02-19T08:15:38;9.50;99.90
7196;DHT22;3639;51.308;5.624;2023-02-19T08:18:04;9.50;99.90
7196;DHT22;3639;51.308;5.624;2023-02-19T08:20:30;9.50;99.90
7196;DHT22;3639;51.308;5.624;2023-02-19T08:22:55;9.50;99.90
7196;DHT22;3639;51.308;5.624;2023-02-19T08:25:21;9.50;99.90
7196;DHT22;3639;51.308;5.624;2023-02-19T08:27:46;9.50;99.90
7196;DHT22;3639;51.308;5.624;2023-02-19T08:30:12;9.40;99.90
7196;DHT22;3639;51.308;5.624;2023-02-19T08:32:38;9.40;99.90
7196;DHT22;3639;51.308;5.624;2023-02-19T08:35:04;9.40;99.90
7196;DHT22;3639;51.308;5.624;2023-02-19T08:37:29;9.40;99.90
7196;DHT22;3639;51.308;5.624;2023-02-19T08:39:55;9.40;99.90
7196;DHT22;3639;51.308;5.624;2023-02-19T08:42:21;9.40;99.90
7196;DHT22;3639;51.308;5.624;2023-02-19T08:44:46;9.40;99.90
7196;DHT22;3639;51.308;5.624;2023-02-19T08:47:12;9.40;99.90
7196;DHT22;3639;51.308;5.624;2023-02-19T08:49:37;9.40;99.90
7196;DHT22;3639;51.308;5.624;2023-02-19T08:52:03;9.40;99.90
7196;DHT22;3639;51.308;5.624;2023-02-19T08:54:29;9.40;99.90
7196;DHT22;3639;51.308;5.624;2023-02-19T08:56:54;9.50;99.90
7196;DHT22;3639;51.308;5.624;2023-02-19T08:59:20;9.60;99.90
7196;DHT22;3639;51.308;5.624;2023-02-19T09:01:46;9.60;99.90
7196;DHT22;3639;51.308;5.624;2023-02-19T09:04:12;9.70;99.90
7196;DHT22;3639;51.308;5.624;2023-02-19T09:06:38;9.80;99.90
7196;DHT22;3639;51.308;5.624;2023-02-19T09:09:04;9.90;99.90
7196;DHT22;3639;51.308;5.624;2023-02-19T09:11:29;9.90;99.90
7196;DHT22;3639;51.308;5.624;2023-02-19T09:13:55;9.90;99.90
7196;DHT22;3639;51.308;5.624;2023-02-19T09:16:21;10.00;99.90
7196;DHT22;3639;51.308;5.624;2023-02-19T09:18:47;10.10;99.90
7196;DHT22;3639;51.308;5.624;2023-02-19T09:21:13;10.10;99.90
7196;DHT22;3639;51.308;5.624;2023-02-19T09:23:39;10.00;99.90
7196;DHT22;3639;51.308;5.624;2023-02-19T09:26:05;10.00;99.90
7196;DHT22;3639;51.308;5.624;2023-02-19T09:28:35;10.00;99.90
7196;DHT22;3639;51.308;5.624;2023-02-19T09:31:08;10.00;99.90
7196;DHT22;3639;51.308;5.624;2023-02-19T09:33:35;10.00;99.90
7196;DHT22;3639;51.308;5.624;2023-02-19T09:36:01;10.00;99.90
7196;DHT22;3639;51.308;5.624;2023-02-19T09:38:27;10.00;99.90
7196;DHT22;3639;51.308;5.624;2023-02-19T09:40:56;10.00;99.90
7196;DHT22;3639;51.308;5.624;2023-02-19T09:43:23;10.00;99.90
7196;DHT22;3639;51.308;5.624;2023-02-19T09:46:03;10.00;99.90
7196;DHT22;3639;51.308;5.624;2023-02-19T09:48:31;10.10;99.90
7196;DHT22;3639;51.308;5.624;2023-02-19T09:50:58;10.10;99.90
7196;DHT22;3639;51.308;5.624;2023-02-19T09:53:27;10.20;99.90
7196;DHT22;3639;51.308;5.624;2023-02-19T09:55:54;10.30;99.90
7196;DHT22;3639;51.308;5.624;2023-02-19T09:58:31;10.30;99.90
7196;DHT22;3639;51.308;5.624;2023-02-19T10:01:00;10.40;99.90
7196;DHT22;3639;51.308;5.624;2023-02-19T10:03:36;10.40;99.90
7196;DHT22;3639;51.308;5.624;2023-02-19T10:06:18;10.50;99.90
7196;DHT22;3639;51.308;5.624;2023-02-19T10:08:49;10.60;99.90
7196;DHT22;3639;51.308;5.624;2023-02-19T10:11:16;10.60;99.90
7196;DHT22;3639;51.308;5.624;2023-02-19T10:16:16;10.60;99.90
7196;DHT22;3639;51.308;5.624;2023-02-19T10:18:44;10.70;99.90
7196;DHT22;3639;51.308;5.624;2023-02-19T10:21:19;10.80;99.90
7196;DHT22;3639;51.308;5.624;2023-02-19T10:23:50;10.80;99.90
7196;DHT22;3639;51.308;5.624;2023-02-19T10:26:18;11.00;99.90
7196;DHT22;3639;51.308;5.624;2023-02-19T10:28:43;11.00;99.90
7196;DHT22;3639;51.308;5.624;2023-02-19T10:31:17;11.20;99.90
7196;DHT22;3639;51.308;5.624;2023-02-19T10:33:55;11.20;99.90
7196;DHT22;3639;51.308;5.624;2023-02-19T10:36:39;11.10;99.90
7196;DHT22;3639;51.308;5.624;2023-02-19T10:39:35;11.10;99.90
7196;DHT22;3639;51.308;5.624;2023-02-19T10:42:03;11.00;99.90
7196;DHT22;3639;51.308;5.624;2023-02-19T10:44:37;10.90;99.90
7196;DHT22;3639;51.308;5.624;2023-02-19T10:47:05;10.90;99.90
7196;DHT22;3639;51.308;5.624;2023-02-19T10:49:37;10.90;99.90
7196;DHT22;3639;51.308;5.624;2023-02-19T10:52:35;10.90;99.90
7196;DHT22;3639;51.308;5.624;2023-02-19T10:55:19;10.90;99.90
7196;DHT22;3639;51.308;5.624;2023-02-19T10:57:48;10.90;99.90
7196;DHT22;3639;51.308;5.624;2023-02-19T11:02:42;10.70;99.90
7196;DHT22;3639;51.308;5.624;2023-02-19T11:07:35;10.50;99.90
7196;DHT22;3639;51.308;5.624;2023-02-19T11:10:02;10.50;99.90
7196;DHT22;3639;51.308;5.624;2023-02-19T11:12:30;10.60;99.90
7196;DHT22;3639;51.308;5.624;2023-02-19T11:15:02;10.70;99.90
7196;DHT22;3639;51.308;5.624;2023-02-19T11:17:37;10.90;99.90
7196;DHT22;3639;51.308;5.624;2023-02-19T11:20:08;11.20;99.90
7196;DHT22;3639;51.308;5.624;2023-02-19T11:22:42;11.50;99.90
7196;DHT22;3639;51.308;5.624;2023-02-19T11:27:56;12.00;99.90
7196;DHT22;3639;51.308;5.624;2023-02-19T11:30:45;12.20;99.90
7196;DHT22;3639;51.308;5.624;2023-02-19T11:35:45;12.20;99.90
7196;DHT22;3639;51.308;5.624;2023-02-19T11:38:12;11.90;99.90
7196;DHT22;3639;51.308;5.624;2023-02-19T11:46:20;10.80;99.90
7196;DHT22;3639;51.308;5.624;2023-02-19T11:57:40;10.60;99.90
7196;DHT22;3639;51.308;5.624;2023-02-19T12:00:48;10.70;99.90
7196;DHT22;3639;51.308;5.624;2023-02-19T12:04:01;10.80;99.90
7196;DHT22;3639;51.308;5.624;2023-02-19T12:12:08;11.00;99.90
7196;DHT22;3639;51.308;5.624;2023-02-19T12:25:42;11.00;99.90
7196;DHT22;3639;51.308;5.624;2023-02-19T12:28:14;11.00;99.90
7196;DHT22;3639;51.308;5.624;2023-02-19T12:37:25;10.90;99.90
7196;DHT22;3639;51.308;5.624;2023-02-19T12:43:19;10.90;99.90
7196;DHT22;3639;51.308;5.624;2023-02-19T12:46:02;10.90;99.90
7196;DHT22;3639;51.308;5.624;2023-02-19T12:48:37;11.10;99.90
7196;DHT22;3639;51.308;5.624;2023-02-19T12:51:11;11.30;99.90
7196;DHT22;3639;51.308;5.624;2023-02-19T12:53:50;11.40;99.90
7196;DHT22;3639;51.308;5.624;2023-02-19T12:56:22;11.60;99.90
7196;DHT22;3639;51.308;5.624;2023-02-19T12:58:52;11.60;99.90
7196;DHT22;3639;51.308;5.624;2023-02-19T13:01:25;11.70;99.90
7196;DHT22;3639;51.308;5.624;2023-02-19T13:06:41;11.70;99.90
7196;DHT22;3639;51.308;5.624;2023-02-19T13:09:37;11.70;99.90
7196;DHT22;3639;51.308;5.624;2023-02-19T13:12:10;11.60;99.90
7196;DHT22;3639;51.308;5.624;2023-02-19T13:14:44;11.50;99.90
7196;DHT22;3639;51.308;5.624;2023-02-19T13:17:37;11.50;99.90
7196;DHT22;3639;51.308;5.624;2023-02-19T13:20:30;11.60;99.90
7196;DHT22;3639;51.308;5.624;2023-02-19T13:23:15;11.70;99.90
7196;DHT22;3639;51.308;5.624;2023-02-19T13:34:16;11.70;99.90
7196;DHT22;3639;51.308;5.624;2023-02-19T13:36:25;11.60;99.90
7196;DHT22;3639;51.308;5.624;2023-02-19T13:38:51;11.70;99.90
7196;DHT22;3639;51.308;5.624;2023-02-19T13:41:27;11.70;99.90
7196;DHT22;3639;51.308;5.624;2023-02-19T13:43:58;11.80;99.90
7196;DHT22;3639;51.308;5.624;2023-02-19T13:46:33;11.80;99.90
7196;DHT22;3639;51.308;5.624;2023-02-19T13:49:24;11.70;99.90
7196;DHT22;3639;51.308;5.624;2023-02-19T13:51:52;11.70;99.90
7196;DHT22;3639;51.308;5.624;2023-02-19T13:54:27;11.60;99.90
7196;DHT22;3639;51.308;5.624;2023-02-19T13:59:47;11.50;99.90
7196;DHT22;3639;51.308;5.624;2023-02-19T14:04:59;11.20;99.90
7196;DHT22;3639;51.308;5.624;2023-02-19T14:09:52;11.10;99.90
7196;DHT22;3639;51.308;5.624;2023-02-19T14:12:20;11.10;99.90
7196;DHT22;3639;51.308;5.624;2023-02-19T14:14:55;11.00;99.90
7196;DHT22;3639;51.308;5.624;2023-02-19T14:17:42;11.00;99.90
7196;DHT22;3639;51.308;5.624;2023-02-19T14:28:18;10.90;99.90
7196;DHT22;3639;51.308;5.624;2023-02-19T14:30:51;10.70;99.90
7196;DHT22;3639;51.308;5.624;2023-02-19T14:33:33;10.70;99.90
7196;DHT22;3639;51.308;5.624;2023-02-19T14:38:57;10.50;99.90
7196;DHT22;3639;51.308;5.624;2023-02-19T14:41:23;10.30;99.90
7196;DHT22;3639;51.308;5.624;2023-02-19T14:43:52;10.20;99.90
7196;DHT22;3639;51.308;5.624;2023-02-19T14:46:30;10.20;99.90
7196;DHT22;3639;51.308;5.624;2023-02-19T14:49:22;10.20;99.90
7196;DHT22;3639;51.308;5.624;2023-02-19T14:51:56;10.30;99.90
7196;DHT22;3639;51.308;5.624;2023-02-19T14:56:53;10.40;99.90
7196;DHT22;3639;51.308;5.624;2023-02-19T15:01:44;10.40;99.90
7196;DHT22;3639;51.308;5.624;2023-02-19T15:04:25;10.40;99.90
7196;DHT22;3639;51.308;5.624;2023-02-19T15:06:52;10.30;99.90
7196;DHT22;3639;51.308;5.624;2023-02-19T15:09:29;10.30;99.90
7196;DHT22;3639;51.308;5.624;2023-02-19T15:11:55;10.20;99.90
7196;DHT22;3639;51.308;5.624;2023-02-19T15:14:23;10.10;99.90
7196;DHT22;3639;51.308;5.624;2023-02-19T15:16:57;10.00;99.90
7196;DHT22;3639;51.308;5.624;2023-02-19T15:19:24;10.00;99.90
7196;DHT22;3639;51.308;5.624;2023-02-19T15:21:50;10.00;99.90
7196;DHT22;3639;51.308;5.624;2023-02-19T15:24:17;10.00;99.90
7196;DHT22;3639;51.308;5.624;2023-02-19T15:26:48;9.90;99.90
7196;DHT22;3639;51.308;5.624;2023-02-19T15:29:20;9.90;99.90
7196;DHT22;3639;51.308;5.624;2023-02-19T15:31:50;9.90;99.90
7196;DHT22;3639;51.308;5.624;2023-02-19T15:34:24;9.80;99.90
7196;DHT22;3639;51.308;5.624;2023-02-19T15:36:54;9.80;99.90
7196;DHT22;3639;51.308;5.624;2023-02-19T15:39:22;9.70;99.90
7196;DHT22;3639;51.308;5.624;2023-02-19T15:41:57;9.70;99.90
7196;DHT22;3639;51.308;5.624;2023-02-19T15:44:51;9.60;99.90
7196;DHT22;3639;51.308;5.624;2023-02-19T15:47:38;9.60;99.90
7196;DHT22;3639;51.308;5.624;2023-02-19T15:52:54;9.50;99.90
7196;DHT22;3639;51.308;5.624;2023-02-19T15:56:05;9.50;99.90
7196;DHT22;3639;51.308;5.624;2023-02-19T15:58:39;9.50;99.90
7196;DHT22;3639;51.308;5.624;2023-02-19T16:03:44;9.50;99.90
7196;DHT22;3639;51.308;5.624;2023-02-19T16:06:13;9.50;99.90
7196;DHT22;3639;51.308;5.624;2023-02-19T16:08:44;9.50;99.90
7196;DHT22;3639;51.308;5.624;2023-02-19T16:13:49;9.50;99.90
7196;DHT22;3639;51.308;5.624;2023-02-19T16:16:24;9.50;99.90
7196;DHT22;3639;51.308;5.624;2023-02-19T16:18:52;9.50;99.90
7196;DHT22;3639;51.308;5.624;2023-02-19T16:21:23;9.50;99.90
7196;DHT22;3639;51.308;5.624;2023-02-19T16:23:52;9.50;99.90
7196;DHT22;3639;51.308;5.624;2023-02-19T16:26:21;9.50;99.90
7196;DHT22;3639;51.308;5.624;2023-02-19T16:28:51;9.40;99.90
7196;DHT22;3639;51.308;5.624;2023-02-19T16:31:19;9.20;99.90
7196;DHT22;3639;51.308;5.624;2023-02-19T16:33:46;9.10;99.90
7196;DHT22;3639;51.308;5.624;2023-02-19T16:36:33;9.10;99.90
7196;DHT22;3639;51.308;5.624;2023-02-19T16:46:50;9.00;99.90
7196;DHT22;3639;51.308;5.624;2023-02-19T16:49:16;8.90;99.90
7196;DHT22;3639;51.308;5.624;2023-02-19T16:51:43;8.80;99.90
7196;DHT22;3639;51.308;5.624;2023-02-19T16:54:10;8.80;99.90
7196;DHT22;3639;51.308;5.624;2023-02-19T16:56:35;8.80;99.90
7196;DHT22;3639;51.308;5.624;2023-02-19T16:59:01;8.80;99.90
7196;DHT22;3639;51.308;5.624;2023-02-19T17:01:27;8.80;99.90
7196;DHT22;3639;51.308;5.624;2023-02-19T17:03:58;8.80;99.90
7196;DHT22;3639;51.308;5.624;2023-02-19T17:06:25;8.80;99.90
7196;DHT22;3639;51.308;5.624;2023-02-19T17:08:52;8.80;99.90
7196;DHT22;3639;51.308;5.624;2023-02-19T17:11:18;8.80;99.90
7196;DHT22;3639;51.308;5.624;2023-02-19T17:13:45;8.80;99.90
7196;DHT22;3639;51.308;5.624;2023-02-19T17:16:17;8.80;99.90
7196;DHT22;3639;51.308;5.624;2023-02-19T17:18:42;8.80;99.90
7196;DHT22;3639;51.308;5.624;2023-02-19T17:23:40;8.70;99.90
7196;DHT22;3639;51.308;5.624;2023-02-19T17:26:18;8.70;99.90
7196;DHT22;3639;51.308;5.624;2023-02-19T17:28:44;8.70;99.90
7196;DHT22;3639;51.308;5.624;2023-02-19T17:31:10;8.70;99.90
7196;DHT22;3639;51.308;5.624;2023-02-19T17:33:37;8.60;99.90
7196;DHT22;3639;51.308;5.624;2023-02-19T17:36:03;8.50;99.90
7196;DHT22;3639;51.308;5.624;2023-02-19T17:38:28;8.40;99.90
7196;DHT22;3639;51.308;5.624;2023-02-19T17:40:54;8.40;99.90
7196;DHT22;3639;51.308;5.624;2023-02-19T17:43:20;8.30;99.90
7196;DHT22;3639;51.308;5.624;2023-02-19T17:45:45;8.20;99.90
7196;DHT22;3639;51.308;5.624;2023-02-19T17:48:12;8.20;99.90
7196;DHT22;3639;51.308;5.624;2023-02-19T17:50:38;8.10;99.90
7196;DHT22;3639;51.308;5.624;2023-02-19T17:53:03;8.00;99.90
7196;DHT22;3639;51.308;5.624;2023-02-19T17:55:29;8.00;99.90
7196;DHT22;3639;51.308;5.624;2023-02-19T17:57:55;7.90;99.90
7196;DHT22;3639;51.308;5.624;2023-02-19T18:00:26;7.80;99.90
7196;DHT22;3639;51.308;5.624;2023-02-19T18:02:52;7.80;99.90
7196;DHT22;3639;51.308;5.624;2023-02-19T18:05:18;7.80;99.90
7196;DHT22;3639;51.308;5.624;2023-02-19T18:07:45;7.70;99.90
7196;DHT22;3639;51.308;5.624;2023-02-19T18:10:13;7.70;99.90
7196;DHT22;3639;51.308;5.624;2023-02-19T18:12:39;7.60;99.90
7196;DHT22;3639;51.308;5.624;2023-02-19T18:15:06;7.60;99.90
7196;DHT22;3639;51.308;5.624;2023-02-19T18:17:33;7.60;99.90
7196;DHT22;3639;51.308;5.624;2023-02-19T18:19:59;7.50;99.90
7196;DHT22;3639;51.308;5.624;2023-02-19T18:22:24;7.50;99.90
7196;DHT22;3639;51.308;5.624;2023-02-19T18:24:52;7.40;99.90
7196;DHT22;3639;51.308;5.624;2023-02-19T18:27:18;7.30;99.90
7196;DHT22;3639;51.308;5.624;2023-02-19T18:29:54;7.20;99.90
7196;DHT22;3639;51.308;5.624;2023-02-19T18:32:21;7.30;99.90
7196;DHT22;3639;51.308;5.624;2023-02-19T18:34:49;7.30;99.90
7196;DHT22;3639;51.308;5.624;2023-02-19T18:37:15;7.20;99.90
7196;DHT22;3639;51.308;5.624;2023-02-19T18:39:41;7.10;99.90
7196;DHT22;3639;51.308;5.624;2023-02-19T18:42:09;7.10;99.90